sensor_id;sensor_type;location;lat;lon;timestamp;pressure;altitude;pressure_sealevel;temperature;humidity
34742;BME280;20968;42.696;23.360;2023-05-23T00:00:11;95107.69;;;15.91;76.76
34742;BME280;20968;42.696;23.360;2023-05-23T00:02:38;95098.56;;;15.96;76.89
34742;BME280;20968;42.696;23.360;2023-05-23T00:05:06;95086.50;;;15.88;76.93
34742;BME280;20968;42.696;23.360;2023-05-23T00:07:31;95094.56;;;15.92;76.32
34742;BME280;20968;42.696;23.360;2023-05-23T00:09:57;95097.38;;;15.86;76.30
34742;BME280;20968;42.696;23.360;2023-05-23T00:12:23;95095.13;;;15.85;76.40
34742;BME280;20968;42.696;23.360;2023-05-23T00:14:49;95099.34;;;15.91;76.61
34742;BME280;20968;42.696;23.360;2023-05-23T00:17:17;95090.31;;;15.85;76.12
34742;BME280;20968;42.696;23.360;2023-05-23T00:19:43;95096.09;;;15.87;75.91
34742;BME280;20968;42.696;23.360;2023-05-23T00:22:11;95098.38;;;15.83;76.27
34742;BME280;20968;42.696;23.360;2023-05-23T00:24:37;95084.84;;;15.74;76.73
34742;BME280;20968;42.696;23.360;2023-05-23T00:27:03;95098.94;;;15.76;76.46
34742;BME280;20968;42.696;23.360;2023-05-23T00:29:30;95100.28;;;15.59;76.44
34742;BME280;20968;42.696;23.360;2023-05-23T00:31:56;95100.81;;;15.57;75.99
34742;BME280;20968;42.696;23.360;2023-05-23T00:34:21;95091.78;;;15.52;76.14
34742;BME280;20968;42.696;23.360;2023-05-23T00:36:47;95094.50;;;15.57;75.66
34742;BME280;20968;42.696;23.360;2023-05-23T00:39:14;95098.84;;;15.53;75.79
34742;BME280;20968;42.696;23.360;2023-05-23T00:41:46;95098.84;;;15.53;75.69
34742;BME280;20968;42.696;23.360;2023-05-23T00:44:14;95089.00;;;15.46;75.67
34742;BME280;20968;42.696;23.360;2023-05-23T00:46:42;95090.25;;;15.51;75.61
34742;BME280;20968;42.696;23.360;2023-05-23T00:49:10;95087.50;;;15.45;75.83
34742;BME280;20968;42.696;23.360;2023-05-23T00:51:37;95095.56;;;15.43;75.26
34742;BME280;20968;42.696;23.360;2023-05-23T00:54:05;95095.56;;;15.43;75.82
34742;BME280;20968;42.696;23.360;2023-05-23T00:56:33;95092.81;;;15.43;75.78
34742;BME280;20968;42.696;23.360;2023-05-23T00:59:21;95100.13;;;15.46;76.10
34742;BME280;20968;42.696;23.360;2023-05-23T01:01:51;95098.88;;;15.42;75.88
34742;BME280;20968;42.696;23.360;2023-05-23T01:04:20;95104.19;;;15.34;76.27
34742;BME280;20968;42.696;23.360;2023-05-23T01:06:51;95109.53;;;15.27;76.03
34742;BME280;20968;42.696;23.360;2023-05-23T01:09:18;95109.28;;;15.25;76.02
34742;BME280;20968;42.696;23.360;2023-05-23T01:12:39;95104.22;;;15.29;76.20
34742;BME280;20968;42.696;23.360;2023-05-23T01:15:14;95096.19;;;15.25;76.22
34742;BME280;20968;42.696;23.360;2023-05-23T01:18:09;95096.91;;;15.31;76.14
34742;BME280;20968;42.696;23.360;2023-05-23T01:20:48;95088.31;;;15.29;76.33
34742;BME280;20968;42.696;23.360;2023-05-23T01:24:12;95093.88;;;15.29;76.47
34742;BME280;20968;42.696;23.360;2023-05-23T01:29:56;95098.41;;;15.32;76.57
34742;BME280;20968;42.696;23.360;2023-05-23T01:32:30;95099.69;;;15.31;76.42
34742;BME280;20968;42.696;23.360;2023-05-23T01:34:57;95107.22;;;15.31;76.32
34742;BME280;20968;42.696;23.360;2023-05-23T01:37:54;95093.88;;;15.29;76.55
34742;BME280;20968;42.696;23.360;2023-05-23T01:40:22;95098.63;;;15.34;76.65
34742;BME280;20968;42.696;23.360;2023-05-23T01:42:48;95096.38;;;15.33;76.94
34742;BME280;20968;42.696;23.360;2023-05-23T01:45:17;95082.25;;;15.31;76.65
34742;BME280;20968;42.696;23.360;2023-05-23T01:47:47;95078.00;;;15.30;76.93
34742;BME280;20968;42.696;23.360;2023-05-23T01:50:14;95077.47;;;15.31;76.68
34742;BME280;20968;42.696;23.360;2023-05-23T01:52:41;95079.00;;;15.32;76.79
34742;BME280;20968;42.696;23.360;2023-05-23T01:55:09;95094.59;;;15.35;76.75
34742;BME280;20968;42.696;23.360;2023-05-23T01:57:37;95089.56;;;15.39;76.38
34742;BME280;20968;42.696;23.360;2023-05-23T02:00:07;95089.56;;;15.39;76.33
34742;BME280;20968;42.696;23.360;2023-05-23T02:02:39;95087.13;;;15.08;75.91
34742;BME280;20968;42.696;23.360;2023-05-23T02:05:05;95084.69;;;14.83;75.68
34742;BME280;20968;42.696;23.360;2023-05-23T02:07:30;95076.38;;;14.77;75.38
34742;BME280;20968;42.696;23.360;2023-05-23T02:09:56;95078.63;;;14.84;75.51
34742;BME280;20968;42.696;23.360;2023-05-23T02:12:21;95087.66;;;14.90;75.72
34742;BME280;20968;42.696;23.360;2023-05-23T02:14:48;95087.94;;;14.87;75.35
34742;BME280;20968;42.696;23.360;2023-05-23T02:17:14;95074.59;;;14.85;75.91
34742;BME280;20968;42.696;23.360;2023-05-23T02:19:41;95083.63;;;14.91;76.37
34742;BME280;20968;42.696;23.360;2023-05-23T02:22:06;95078.09;;;14.91;75.69
34742;BME280;20968;42.696;23.360;2023-05-23T02:24:32;95089.69;;;14.95;75.76
34742;BME280;20968;42.696;23.360;2023-05-23T02:27:17;95087.19;;;14.86;75.95
34742;BME280;20968;42.696;23.360;2023-05-23T02:29:50;95075.38;;;14.80;75.94
34742;BME280;20968;42.696;23.360;2023-05-23T02:32:29;95080.88;;;14.86;76.56
34742;BME280;20968;42.696;23.360;2023-05-23T02:34:57;95085.41;;;14.83;75.54
34742;BME280;20968;42.696;23.360;2023-05-23T02:37:23;95082.66;;;14.78;75.37
34742;BME280;20968;42.696;23.360;2023-05-23T02:39:49;95078.13;;;14.80;75.52
34742;BME280;20968;42.696;23.360;2023-05-23T02:42:16;95079.13;;;14.77;75.26
34742;BME280;20968;42.696;23.360;2023-05-23T02:44:42;95077.16;;;14.73;75.48
34742;BME280;20968;42.696;23.360;2023-05-23T02:47:10;95086.69;;;14.82;74.82
34742;BME280;20968;42.696;23.360;2023-05-23T02:56:29;95075.66;;;14.33;77.39
34742;BME280;20968;42.696;23.360;2023-05-23T02:58:56;95077.69;;;14.33;76.81
34742;BME280;20968;42.696;23.360;2023-05-23T03:01:24;95079.22;;;14.34;76.76
34742;BME280;20968;42.696;23.360;2023-05-23T03:03:53;95084.97;;;14.41;77.12
34742;BME280;20968;42.696;23.360;2023-05-23T03:09:45;95085.72;;;14.53;76.98
34742;BME280;20968;42.696;23.360;2023-05-23T03:12:12;95066.06;;;14.56;76.71
34742;BME280;20968;42.696;23.360;2023-05-23T03:14:38;95085.72;;;14.64;75.69
34742;BME280;20968;42.696;23.360;2023-05-23T03:17:04;95084.44;;;14.70;75.85
34742;BME280;20968;42.696;23.360;2023-05-23T03:19:34;95077.16;;;14.62;75.95
34742;BME280;20968;42.696;23.360;2023-05-23T03:22:02;95085.72;;;14.69;76.39
34742;BME280;20968;42.696;23.360;2023-05-23T03:24:34;95083.69;;;14.70;76.02
34742;BME280;20968;42.696;23.360;2023-05-23T03:27:15;95084.19;;;14.74;76.05
34742;BME280;20968;42.696;23.360;2023-05-23T03:29:40;95078.66;;;14.63;76.18
34742;BME280;20968;42.696;23.360;2023-05-23T03:32:07;95088.25;;;14.51;76.61
34742;BME280;20968;42.696;23.360;2023-05-23T03:34:35;95089.00;;;14.51;76.38
34742;BME280;20968;42.696;23.360;2023-05-23T03:37:39;95101.88;;;14.49;76.27
34742;BME280;20968;42.696;23.360;2023-05-23T03:40:26;95098.84;;;14.36;76.37
34742;BME280;20968;42.696;23.360;2023-05-23T03:43:10;95112.44;;;14.34;76.39
34742;BME280;20968;42.696;23.360;2023-05-23T03:45:37;95097.34;;;14.24;76.63
34742;BME280;20968;42.696;23.360;2023-05-23T03:48:07;95096.84;;;14.36;76.59
34742;BME280;20968;42.696;23.360;2023-05-23T03:50:33;95095.56;;;14.43;76.19
34742;BME280;20968;42.696;23.360;2023-05-23T03:52:59;95110.19;;;14.49;76.40
34742;BME280;20968;42.696;23.360;2023-05-23T03:55:26;95109.66;;;14.56;76.51
34742;BME280;20968;42.696;23.360;2023-05-23T03:58:17;95116.22;;;14.58;76.63
34742;BME280;20968;42.696;23.360;2023-05-23T04:00:46;95116.47;;;14.55;76.19
34742;BME280;20968;42.696;23.360;2023-05-23T04:03:11;95115.94;;;14.56;76.62
34742;BME280;20968;42.696;23.360;2023-05-23T04:05:42;95112.94;;;14.54;75.92
34742;BME280;20968;42.696;23.360;2023-05-23T04:08:08;95112.69;;;14.52;76.40
34742;BME280;20968;42.696;23.360;2023-05-23T04:10:54;95108.63;;;14.64;75.75
34742;BME280;20968;42.696;23.360;2023-05-23T04:13:31;95098.03;;;14.74;75.43
34742;BME280;20968;42.696;23.360;2023-05-23T04:16:23;95111.38;;;14.91;75.74
34742;BME280;20968;42.696;23.360;2023-05-23T04:19:18;95112.88;;;14.92;75.70
34742;BME280;20968;42.696;23.360;2023-05-23T04:22:25;95108.84;;;14.82;75.96
34742;BME280;20968;42.696;23.360;2023-05-23T04:25:12;95108.38;;;14.84;76.31
34742;BME280;20968;42.696;23.360;2023-05-23T04:31:26;95119.22;;;14.44;76.72
34742;BME280;20968;42.696;23.360;2023-05-23T04:37:20;95106.34;;;14.08;77.86
34742;BME280;20968;42.696;23.360;2023-05-23T04:43:15;95111.41;;;14.04;78.92
34742;BME280;20968;42.696;23.360;2023-05-23T04:46:15;95125.53;;;14.28;78.71
34742;BME280;20968;42.696;23.360;2023-05-23T04:48:43;95130.31;;;14.60;81.62
34742;BME280;20968;42.696;23.360;2023-05-23T04:51:08;95126.50;;;14.90;82.79
34742;BME280;20968;42.696;23.360;2023-05-23T04:53:36;95116.09;;;15.18;84.39
34742;BME280;20968;42.696;23.360;2023-05-23T04:56:02;95129.13;;;15.45;83.74
34742;BME280;20968;42.696;23.360;2023-05-23T04:58:29;95127.50;;;15.66;81.50
34742;BME280;20968;42.696;23.360;2023-05-23T05:00:55;95122.16;;;15.79;79.42
34742;BME280;20968;42.696;23.360;2023-05-23T05:03:21;95123.06;;;15.98;78.62
34742;BME280;20968;42.696;23.360;2023-05-23T05:05:49;95123.19;;;16.16;78.47
34742;BME280;20968;42.696;23.360;2023-05-23T05:08:17;95130.66;;;16.38;76.00
34742;BME280;20968;42.696;23.360;2023-05-23T05:10:44;95139.13;;;16.50;75.40
34742;BME280;20968;42.696;23.360;2023-05-23T05:13:09;95146.88;;;16.63;74.86
34742;BME280;20968;42.696;23.360;2023-05-23T05:15:35;95140.97;;;16.72;73.93
34742;BME280;20968;42.696;23.360;2023-05-23T05:18:02;95144.66;;;16.85;73.00
34742;BME280;20968;42.696;23.360;2023-05-23T05:20:29;95153.41;;;16.95;71.84
34742;BME280;20968;42.696;23.360;2023-05-23T05:22:57;95152.84;;;17.02;72.60
34742;BME280;20968;42.696;23.360;2023-05-23T05:25:23;95159.59;;;17.12;71.90
34742;BME280;20968;42.696;23.360;2023-05-23T05:27:48;95147.81;;;17.00;71.14
34742;BME280;20968;42.696;23.360;2023-05-23T05:30:14;95150.50;;;17.06;72.04
34742;BME280;20968;42.696;23.360;2023-05-23T05:32:43;95146.88;;;17.16;71.03
34742;BME280;20968;42.696;23.360;2023-05-23T05:35:11;95141.19;;;17.27;70.49
34742;BME280;20968;42.696;23.360;2023-05-23T05:37:44;95152.63;;;17.23;68.52
34742;BME280;20968;42.696;23.360;2023-05-23T05:40:11;95144.44;;;17.07;67.76
34742;BME280;20968;42.696;23.360;2023-05-23T05:42:36;95155.66;;;16.96;68.49
34742;BME280;20968;42.696;23.360;2023-05-23T05:45:05;95154.78;;;16.83;69.33
34742;BME280;20968;42.696;23.360;2023-05-23T05:47:32;95150.38;;;16.63;69.72
34742;BME280;20968;42.696;23.360;2023-05-23T05:49:58;95153.53;;;16.54;70.48
34742;BME280;20968;42.696;23.360;2023-05-23T05:52:23;95150.56;;;16.41;70.47
34742;BME280;20968;42.696;23.360;2023-05-23T05:54:50;95140.69;;;16.46;71.47
34742;BME280;20968;42.696;23.360;2023-05-23T05:57:15;95158.88;;;16.47;71.71
34742;BME280;20968;42.696;23.360;2023-05-23T05:59:41;95153.81;;;16.51;71.23
34742;BME280;20968;42.696;23.360;2023-05-23T06:02:06;95155.81;;;16.50;71.75
34742;BME280;20968;42.696;23.360;2023-05-23T06:04:32;95160.06;;;16.57;72.57
34742;BME280;20968;42.696;23.360;2023-05-23T06:06:58;95167.19;;;16.52;72.79
34742;BME280;20968;42.696;23.360;2023-05-23T06:09:24;95155.91;;;16.39;71.92
34742;BME280;20968;42.696;23.360;2023-05-23T06:11:50;95158.97;;;16.36;72.38
34742;BME280;20968;42.696;23.360;2023-05-23T06:14:15;95164.03;;;16.32;72.84
34742;BME280;20968;42.696;23.360;2023-05-23T06:16:44;95161.13;;;16.08;73.43
34742;BME280;20968;42.696;23.360;2023-05-23T06:19:34;95161.88;;;16.09;74.70
34742;BME280;20968;42.696;23.360;2023-05-23T06:22:00;95158.78;;;16.18;74.49
34742;BME280;20968;42.696;23.360;2023-05-23T06:24:26;95156.81;;;16.07;75.54
34742;BME280;20968;42.696;23.360;2023-05-23T06:26:53;95157.03;;;16.20;74.79
34742;BME280;20968;42.696;23.360;2023-05-23T06:29:25;95152.69;;;16.25;74.30
34742;BME280;20968;42.696;23.360;2023-05-23T06:31:52;95157.72;;;15.86;75.71
34742;BME280;20968;42.696;23.360;2023-05-23T06:34:36;95149.13;;;15.89;75.37
34742;BME280;20968;42.696;23.360;2023-05-23T06:37:01;95159.69;;;15.96;74.74
34742;BME280;20968;42.696;23.360;2023-05-23T06:39:29;95158.72;;;15.88;75.36
34742;BME280;20968;42.696;23.360;2023-05-23T06:42:00;95161.16;;;16.03;75.71
34742;BME280;20968;42.696;23.360;2023-05-23T06:44:27;95150.03;;;16.03;75.15
34742;BME280;20968;42.696;23.360;2023-05-23T06:46:54;95154.25;;;16.20;75.74
34742;BME280;20968;42.696;23.360;2023-05-23T06:49:23;95142.06;;;16.23;75.98
34742;BME280;20968;42.696;23.360;2023-05-23T06:51:49;95152.38;;;16.34;75.48
34742;BME280;20968;42.696;23.360;2023-05-23T06:54:17;95151.41;;;16.26;74.63
34742;BME280;20968;42.696;23.360;2023-05-23T06:56:48;95133.44;;;16.38;74.36
34742;BME280;20968;42.696;23.360;2023-05-23T06:59:24;95141.59;;;16.25;75.56
34742;BME280;20968;42.696;23.360;2023-05-23T07:01:52;95140.53;;;16.28;74.85
34742;BME280;20968;42.696;23.360;2023-05-23T07:04:30;95142.09;;;16.18;76.24
34742;BME280;20968;42.696;23.360;2023-05-23T07:07:26;95136.09;;;16.14;76.09
34742;BME280;20968;42.696;23.360;2023-05-23T07:09:57;95140.94;;;16.08;77.37
34742;BME280;20968;42.696;23.360;2023-05-23T07:12:28;95137.25;;;16.29;76.33
34742;BME280;20968;42.696;23.360;2023-05-23T07:14:56;95140.56;;;16.62;76.88
34742;BME280;20968;42.696;23.360;2023-05-23T07:17:25;95135.44;;;16.96;76.72
34742;BME280;20968;42.696;23.360;2023-05-23T07:19:50;95130.44;;;17.13;76.08
34742;BME280;20968;42.696;23.360;2023-05-23T07:22:19;95125.91;;;17.15;75.04
34742;BME280;20968;42.696;23.360;2023-05-23T07:24:46;95125.66;;;17.61;73.91
34742;BME280;20968;42.696;23.360;2023-05-23T07:27:32;95122.28;;;17.86;73.18
34742;BME280;20968;42.696;23.360;2023-05-23T07:30:01;95117.97;;;18.03;72.89
34742;BME280;20968;42.696;23.360;2023-05-23T07:32:32;95120.94;;;18.29;71.13
34742;BME280;20968;42.696;23.360;2023-05-23T07:35:07;95116.72;;;18.54;71.33
34742;BME280;20968;42.696;23.360;2023-05-23T07:37:48;95120.59;;;18.51;71.17
34742;BME280;20968;42.696;23.360;2023-05-23T07:40:36;95111.56;;;18.89;70.34
34742;BME280;20968;42.696;23.360;2023-05-23T07:43:07;95121.38;;;19.22;68.44
34742;BME280;20968;42.696;23.360;2023-05-23T07:45:38;95113.13;;;19.29;66.98
34742;BME280;20968;42.696;23.360;2023-05-23T07:48:15;95107.88;;;19.26;69.01
34742;BME280;20968;42.696;23.360;2023-05-23T07:50:44;95113.97;;;19.11;68.25
34742;BME280;20968;42.696;23.360;2023-05-23T07:53:11;95124.84;;;19.41;68.71
34742;BME280;20968;42.696;23.360;2023-05-23T07:55:37;95104.63;;;19.60;68.15
34742;BME280;20968;42.696;23.360;2023-05-23T07:58:14;95109.03;;;19.82;67.20
34742;BME280;20968;42.696;23.360;2023-05-23T08:00:44;95106.97;;;19.82;67.41
34742;BME280;20968;42.696;23.360;2023-05-23T08:03:10;95100.63;;;19.82;65.98
34742;BME280;20968;42.696;23.360;2023-05-23T08:05:37;95102.25;;;20.03;66.47
34742;BME280;20968;42.696;23.360;2023-05-23T08:08:04;95106.16;;;20.21;65.63
34742;BME280;20968;42.696;23.360;2023-05-23T08:10:30;95101.22;;;20.47;65.82
34742;BME280;20968;42.696;23.360;2023-05-23T08:12:55;95107.50;;;20.40;65.15
34742;BME280;20968;42.696;23.360;2023-05-23T08:15:24;95100.63;;;20.61;66.01
34742;BME280;20968;42.696;23.360;2023-05-23T08:17:54;95102.69;;;20.81;65.28
34742;BME280;20968;42.696;23.360;2023-05-23T08:20:39;95107.25;;;20.92;62.88
34742;BME280;20968;42.696;23.360;2023-05-23T08:23:28;95106.47;;;21.12;63.85
34742;BME280;20968;42.696;23.360;2023-05-23T08:25:53;95107.44;;;21.14;61.96
34742;BME280;20968;42.696;23.360;2023-05-23T08:28:36;95100.19;;;21.18;62.59
34742;BME280;20968;42.696;23.360;2023-05-23T08:31:11;95107.38;;;21.34;64.03
34742;BME280;20968;42.696;23.360;2023-05-23T08:34:07;95105.16;;;21.61;61.57
34742;BME280;20968;42.696;23.360;2023-05-23T08:37:14;95090.84;;;21.72;61.81
34742;BME280;20968;42.696;23.360;2023-05-23T08:40:00;95091.56;;;21.72;60.46
34742;BME280;20968;42.696;23.360;2023-05-23T08:42:38;95093.28;;;21.75;61.89
34742;BME280;20968;42.696;23.360;2023-05-23T08:45:06;95099.22;;;22.07;60.94
34742;BME280;20968;42.696;23.360;2023-05-23T08:47:45;95091.22;;;22.26;59.67
34742;BME280;20968;42.696;23.360;2023-05-23T08:50:54;95091.91;;;22.47;60.74
34742;BME280;20968;42.696;23.360;2023-05-23T08:53:44;95092.84;;;22.64;60.50
34742;BME280;20968;42.696;23.360;2023-05-23T08:56:31;95083.50;;;22.84;59.22
34742;BME280;20968;42.696;23.360;2023-05-23T08:58:57;95090.28;;;23.03;59.84
34742;BME280;20968;42.696;23.360;2023-05-23T09:01:23;95083.88;;;22.95;59.25
34742;BME280;20968;42.696;23.360;2023-05-23T09:03:50;95086.34;;;22.91;58.19
34742;BME280;20968;42.696;23.360;2023-05-23T09:06:16;95083.16;;;23.17;56.63
34742;BME280;20968;42.696;23.360;2023-05-23T09:08:46;95080.53;;;23.04;56.08
34742;BME280;20968;42.696;23.360;2023-05-23T09:11:12;95082.38;;;23.47;56.70
34742;BME280;20968;42.696;23.360;2023-05-23T09:13:38;95084.63;;;23.33;54.02
34742;BME280;20968;42.696;23.360;2023-05-23T09:16:39;95079.91;;;23.51;56.00
34742;BME280;20968;42.696;23.360;2023-05-23T09:19:12;95062.25;;;23.80;55.89
34742;BME280;20968;42.696;23.360;2023-05-23T09:21:52;95061.88;;;23.68;55.58
34742;BME280;20968;42.696;23.360;2023-05-23T09:24:18;95061.84;;;23.91;56.40
34742;BME280;20968;42.696;23.360;2023-05-23T09:26:46;95068.59;;;23.88;53.97
34742;BME280;20968;42.696;23.360;2023-05-23T09:29:21;95063.50;;;24.01;54.28
34742;BME280;20968;42.696;23.360;2023-05-23T09:31:47;95057.16;;;23.93;52.00
34742;BME280;20968;42.696;23.360;2023-05-23T09:34:12;95064.75;;;24.15;51.36
34742;BME280;20968;42.696;23.360;2023-05-23T09:36:39;95063.81;;;24.13;50.98
34742;BME280;20968;42.696;23.360;2023-05-23T09:39:10;95057.03;;;24.16;47.37
34742;BME280;20968;42.696;23.360;2023-05-23T09:41:36;95055.41;;;24.37;47.45
34742;BME280;20968;42.696;23.360;2023-05-23T09:44:08;95058.19;;;24.52;46.22
34742;BME280;20968;42.696;23.360;2023-05-23T09:46:35;95047.50;;;24.50;43.67
34742;BME280;20968;42.696;23.360;2023-05-23T09:49:01;95034.56;;;24.72;44.46
34742;BME280;20968;42.696;23.360;2023-05-23T09:51:28;95030.59;;;24.75;47.58
34742;BME280;20968;42.696;23.360;2023-05-23T09:53:53;95030.38;;;24.80;46.07
34742;BME280;20968;42.696;23.360;2023-05-23T09:56:19;95035.94;;;24.88;45.78
34742;BME280;20968;42.696;23.360;2023-05-23T09:58:48;95023.47;;;24.98;45.36
34742;BME280;20968;42.696;23.360;2023-05-23T10:01:14;95024.03;;;25.21;45.44
34742;BME280;20968;42.696;23.360;2023-05-23T10:03:51;95018.13;;;25.10;43.45
34742;BME280;20968;42.696;23.360;2023-05-23T10:09:05;95021.09;;;24.87;41.16
34742;BME280;20968;42.696;23.360;2023-05-23T10:14:00;95028.81;;;25.11;45.22
34742;BME280;20968;42.696;23.360;2023-05-23T10:16:37;95016.66;;;25.01;41.31
34742;BME280;20968;42.696;23.360;2023-05-23T10:19:37;95019.88;;;25.22;41.23
34742;BME280;20968;42.696;23.360;2023-05-23T10:22:09;95015.16;;;25.24;41.27
34742;BME280;20968;42.696;23.360;2023-05-23T10:24:36;95014.50;;;25.33;41.66
34742;BME280;20968;42.696;23.360;2023-05-23T10:27:03;95020.91;;;25.34;37.72
34742;BME280;20968;42.696;23.360;2023-05-23T10:29:30;95018.06;;;25.34;38.84
34742;BME280;20968;42.696;23.360;2023-05-23T10:31:56;95010.75;;;25.31;38.73
34742;BME280;20968;42.696;23.360;2023-05-23T10:34:37;95004.47;;;25.57;39.08
34742;BME280;20968;42.696;23.360;2023-05-23T10:37:11;95003.97;;;25.85;38.13
34742;BME280;20968;42.696;23.360;2023-05-23T10:40:04;95008.44;;;25.71;39.21
34742;BME280;20968;42.696;23.360;2023-05-23T10:42:46;95002.00;;;25.78;41.24
34742;BME280;20968;42.696;23.360;2023-05-23T10:45:18;95016.81;;;25.95;37.55
34742;BME280;20968;42.696;23.360;2023-05-23T10:47:46;94997.34;;;25.73;37.55
34742;BME280;20968;42.696;23.360;2023-05-23T10:50:12;94996.00;;;25.74;36.98
34742;BME280;20968;42.696;23.360;2023-05-23T10:52:40;94993.25;;;25.49;36.97
34742;BME280;20968;42.696;23.360;2023-05-23T10:55:15;95000.50;;;25.43;38.31
34742;BME280;20968;42.696;23.360;2023-05-23T10:57:44;94993.69;;;25.46;38.75
34742;BME280;20968;42.696;23.360;2023-05-23T11:00:14;94992.25;;;25.88;37.67
34742;BME280;20968;42.696;23.360;2023-05-23T11:02:46;94996.38;;;26.04;38.25
34742;BME280;20968;42.696;23.360;2023-05-23T11:05:19;94988.94;;;26.25;38.74
34742;BME280;20968;42.696;23.360;2023-05-23T11:07:46;94989.47;;;26.14;35.91
34742;BME280;20968;42.696;23.360;2023-05-23T11:10:30;94980.75;;;26.46;35.70
34742;BME280;20968;42.696;23.360;2023-05-23T11:13:04;94991.97;;;26.54;36.88
34742;BME280;20968;42.696;23.360;2023-05-23T11:15:40;94983.94;;;26.33;34.87
34742;BME280;20968;42.696;23.360;2023-05-23T11:18:07;94982.53;;;26.25;34.91
34742;BME280;20968;42.696;23.360;2023-05-23T11:20:33;94984.44;;;25.96;36.29
34742;BME280;20968;42.696;23.360;2023-05-23T11:23:06;94984.25;;;26.37;35.77
34742;BME280;20968;42.696;23.360;2023-05-23T11:25:40;94973.34;;;26.51;34.68
34742;BME280;20968;42.696;23.360;2023-05-23T11:28:06;94969.41;;;26.73;35.73
34742;BME280;20968;42.696;23.360;2023-05-23T11:30:34;94975.50;;;26.69;33.70
34742;BME280;20968;42.696;23.360;2023-05-23T11:33:08;94973.75;;;26.83;34.86
34742;BME280;20968;42.696;23.360;2023-05-23T11:35:39;94960.31;;;26.74;34.47
34742;BME280;20968;42.696;23.360;2023-05-23T11:38:05;94963.31;;;26.76;34.89
34742;BME280;20968;42.696;23.360;2023-05-23T11:40:33;94964.97;;;26.43;35.26
34742;BME280;20968;42.696;23.360;2023-05-23T11:43:01;94951.38;;;26.68;36.39
34742;BME280;20968;42.696;23.360;2023-05-23T11:45:28;94953.75;;;26.62;35.02
34742;BME280;20968;42.696;23.360;2023-05-23T11:47:54;94957.63;;;26.67;34.61
34742;BME280;20968;42.696;23.360;2023-05-23T11:50:20;94953.41;;;26.58;34.84
34742;BME280;20968;42.696;23.360;2023-05-23T11:52:49;94952.09;;;26.59;36.05
34742;BME280;20968;42.696;23.360;2023-05-23T11:55:24;94952.31;;;26.44;36.23
34742;BME280;20968;42.696;23.360;2023-05-23T11:58:10;94946.53;;;26.87;35.26
34742;BME280;20968;42.696;23.360;2023-05-23T12:00:42;94938.50;;;26.93;36.86
34742;BME280;20968;42.696;23.360;2023-05-23T12:03:08;94947.06;;;27.03;36.43
34742;BME280;20968;42.696;23.360;2023-05-23T12:05:33;94939.75;;;27.19;35.17
34742;BME280;20968;42.696;23.360;2023-05-23T12:07:58;94951.94;;;27.02;34.08
34742;BME280;20968;42.696;23.360;2023-05-23T12:10:26;94944.53;;;27.07;35.51
34742;BME280;20968;42.696;23.360;2023-05-23T12:12:55;94931.91;;;27.36;34.22
34742;BME280;20968;42.696;23.360;2023-05-23T12:15:25;94924.00;;;27.25;36.60
34742;BME280;20968;42.696;23.360;2023-05-23T12:17:52;94925.50;;;27.55;37.12
34742;BME280;20968;42.696;23.360;2023-05-23T12:20:19;94911.97;;;27.62;33.83
34742;BME280;20968;42.696;23.360;2023-05-23T12:22:45;94915.38;;;27.42;34.47
34742;BME280;20968;42.696;23.360;2023-05-23T12:25:11;94916.28;;;26.71;34.36
34742;BME280;20968;42.696;23.360;2023-05-23T12:27:39;94916.81;;;26.51;34.95
34742;BME280;20968;42.696;23.360;2023-05-23T12:30:15;94906.75;;;26.31;35.19
34742;BME280;20968;42.696;23.360;2023-05-23T12:32:43;94908.28;;;26.77;36.25
34742;BME280;20968;42.696;23.360;2023-05-23T12:35:10;94916.53;;;26.56;36.46
34742;BME280;20968;42.696;23.360;2023-05-23T12:37:41;94910.56;;;26.16;34.36
34742;BME280;20968;42.696;23.360;2023-05-23T12:40:12;94906.19;;;25.63;32.34
34742;BME280;20968;42.696;23.360;2023-05-23T12:42:50;94902.19;;;25.83;32.44
34742;BME280;20968;42.696;23.360;2023-05-23T12:45:30;94898.03;;;26.10;32.71
34742;BME280;20968;42.696;23.360;2023-05-23T12:47:56;94895.34;;;26.38;31.86
34742;BME280;20968;42.696;23.360;2023-05-23T12:50:21;94898.97;;;26.48;31.59
34742;BME280;20968;42.696;23.360;2023-05-23T12:52:47;94890.50;;;26.48;32.08
34742;BME280;20968;42.696;23.360;2023-05-23T12:55:12;94893.22;;;26.29;32.39
34742;BME280;20968;42.696;23.360;2023-05-23T12:57:38;94888.53;;;26.41;33.11
34742;BME280;20968;42.696;23.360;2023-05-23T13:00:04;94885.34;;;26.37;31.17
34742;BME280;20968;42.696;23.360;2023-05-23T13:02:31;94889.78;;;26.57;31.10
34742;BME280;20968;42.696;23.360;2023-05-23T13:04:56;94881.94;;;26.93;31.61
34742;BME280;20968;42.696;23.360;2023-05-23T13:07:22;94878.59;;;27.33;32.64
34742;BME280;20968;42.696;23.360;2023-05-23T13:09:48;94865.16;;;27.43;30.96
34742;BME280;20968;42.696;23.360;2023-05-23T13:12:13;94872.63;;;27.29;33.58
34742;BME280;20968;42.696;23.360;2023-05-23T13:14:44;94872.31;;;27.06;32.65
34742;BME280;20968;42.696;23.360;2023-05-23T13:17:12;94867.88;;;27.03;32.78
34742;BME280;20968;42.696;23.360;2023-05-23T13:19:37;94875.16;;;27.06;34.40
34742;BME280;20968;42.696;23.360;2023-05-23T13:22:05;94871.44;;;27.13;34.27
34742;BME280;20968;42.696;23.360;2023-05-23T13:24:30;94873.47;;;26.84;31.91
34742;BME280;20968;42.696;23.360;2023-05-23T13:26:59;94876.25;;;26.65;32.42
34742;BME280;20968;42.696;23.360;2023-05-23T13:29:24;94878.06;;;26.79;32.29
34742;BME280;20968;42.696;23.360;2023-05-23T13:31:49;94872.06;;;26.66;32.52
34742;BME280;20968;42.696;23.360;2023-05-23T13:34:15;94878.50;;;26.85;32.07
34742;BME280;20968;42.696;23.360;2023-05-23T13:36:40;94866.91;;;26.72;31.64
34742;BME280;20968;42.696;23.360;2023-05-23T13:39:06;94875.91;;;27.06;32.60